UAE448 YMML-YSSY
Flight info
| Callsign | UAE448 |
|---|---|
| Flight time | 1h 5m |
| Altitude | 39000 |
| Route | ML H129 DOSEL Y59 RIVET |
| Aircraft | B77L/H-SDE1E2E3FGHIJ2J3J4J5M1RWXY/LB1D1 |
Departure
| Time | 2026-05-04 07:55 |
|---|---|
| Airport | Melbourne Airport (YMML) |
Arrival
| Time | 2026-05-04 09:01 |
|---|---|
| Airport | Sydney Kingsford Smith International Airport (YSSY) |
| Time | Latitude | Longitude | Altitude | Speed | Heading |
|---|---|---|---|---|---|
| 2026-05-04 07:36 | -37.66901 | 144.84325 | 394 ft | 0 kts | 82° |
| 2026-05-04 07:42 | -37.66902 | 144.84312 | 390 ft | 2 kts | 82° |
| 2026-05-04 07:42 | -37.66904 | 144.84291 | 394 ft | 2 kts | 78° |
| 2026-05-04 07:42 | -37.66911 | 144.84273 | 393 ft | 2 kts | 32° |
| 2026-05-04 07:42 | -37.66926 | 144.84266 | 393 ft | 2 kts | 10° |
| 2026-05-04 07:43 | -37.66942 | 144.84263 | 392 ft | 2 kts | 10° |
| 2026-05-04 07:43 | -37.66958 | 144.84259 | 392 ft | 2 kts | 10° |
| 2026-05-04 07:43 | -37.66974 | 144.84255 | 391 ft | 2 kts | 5° |
| 2026-05-04 07:43 | -37.66990 | 144.84255 | 391 ft | 2 kts | 358° |
| 2026-05-04 07:44 | -37.67006 | 144.84256 | 391 ft | 2 kts | 358° |
| 2026-05-04 07:44 | -37.67022 | 144.84257 | 390 ft | 2 kts | 358° |
| 2026-05-04 07:44 | -37.67038 | 144.84259 | 390 ft | 2 kts | 333° |
| 2026-05-04 07:44 | -37.67051 | 144.84271 | 390 ft | 2 kts | 301° |
| 2026-05-04 07:45 | -37.67058 | 144.84289 | 390 ft | 2 kts | 281° |
| 2026-05-04 07:45 | -37.67059 | 144.84310 | 390 ft | 2 kts | 267° |
| 2026-05-04 07:45 | -37.67057 | 144.84330 | 390 ft | 2 kts | 262° |
| 2026-05-04 07:45 | -37.67056 | 144.84344 | 391 ft | 0 kts | 263° |
| 2026-05-04 07:46 | -37.67056 | 144.84343 | 391 ft | 0 kts | 263° |
| 2026-05-04 07:49 | -37.67352 | 144.84298 | 383 ft | 16 kts | 171° |
| 2026-05-04 07:49 | -37.67363 | 144.84301 | 383 ft | 0 kts | 171° |
| 2026-05-04 07:50 | -37.67384 | 144.84305 | 383 ft | 7 kts | 171° |
| 2026-05-04 07:50 | -37.67467 | 144.84321 | 380 ft | 16 kts | 172° |
| 2026-05-04 07:50 | -37.67592 | 144.84343 | 379 ft | 20 kts | 172° |
| 2026-05-04 07:50 | -37.67733 | 144.84368 | 374 ft | 15 kts | 171° |
| 2026-05-04 07:51 | -37.67743 | 144.84370 | 373 ft | 0 kts | 171° |
| 2026-05-04 07:52 | -37.67768 | 144.84375 | 373 ft | 12 kts | 171° |
| 2026-05-04 07:52 | -37.67897 | 144.84399 | 370 ft | 22 kts | 172° |
| 2026-05-04 07:52 | -37.68058 | 144.84429 | 362 ft | 25 kts | 172° |
| 2026-05-04 07:52 | -37.68239 | 144.84462 | 359 ft | 28 kts | 171° |
| 2026-05-04 07:53 | -37.68394 | 144.84434 | 360 ft | 24 kts | 211° |
| 2026-05-04 07:54 | -37.68498 | 144.84086 | 354 ft | 1 kts | 351° |
| 2026-05-04 07:55 | -37.68284 | 144.84047 | 359 ft | 84 kts | 352° |
| 2026-05-04 07:55 | -37.67326 | 144.83834 | 634 ft | 177 kts | 350° |
| 2026-05-04 07:55 | -37.66107 | 144.83574 | 2106 ft | 168 kts | 349° |
| 2026-05-04 07:55 | -37.64898 | 144.83360 | 3306 ft | 189 kts | 345° |
| 2026-05-04 07:56 | -37.63486 | 144.83093 | 3942 ft | 215 kts | 346° |
| 2026-05-04 07:56 | -37.61957 | 144.82801 | 4638 ft | 227 kts | 346° |
| 2026-05-04 07:56 | -37.60339 | 144.82486 | 5012 ft | 247 kts | 347° |
| 2026-05-04 07:56 | -37.58454 | 144.82641 | 5056 ft | 303 kts | 14° |
| 2026-05-04 07:57 | -37.56517 | 144.83875 | 5914 ft | 319 kts | 22° |
| 2026-05-04 07:57 | -37.54520 | 144.85120 | 7186 ft | 323 kts | 20° |
| 2026-05-04 07:57 | -37.52492 | 144.86331 | 8514 ft | 326 kts | 19° |
| 2026-05-04 07:57 | -37.50377 | 144.87591 | 9356 ft | 349 kts | 20° |
| 2026-05-04 07:58 | -37.48108 | 144.88957 | 10015 ft | 371 kts | 20° |
| 2026-05-04 07:58 | -37.45745 | 144.90389 | 10987 ft | 382 kts | 21° |
| 2026-05-04 07:58 | -37.43455 | 144.92138 | 11815 ft | 396 kts | 37° |
| 2026-05-04 07:58 | -37.41696 | 144.94871 | 12710 ft | 407 kts | 53° |
| 2026-05-04 07:59 | -37.40107 | 144.97883 | 13585 ft | 418 kts | 52° |
| 2026-05-04 07:59 | -37.38462 | 145.00865 | 14609 ft | 421 kts | 51° |
| 2026-05-04 07:59 | -37.36746 | 145.03919 | 15722 ft | 424 kts | 51° |
| 2026-05-04 07:59 | -37.35047 | 145.06916 | 16709 ft | 430 kts | 51° |
| 2026-05-04 08:00 | -37.33275 | 145.10035 | 17666 ft | 436 kts | 51° |
| 2026-05-04 08:00 | -37.31499 | 145.13158 | 18555 ft | 442 kts | 51° |
| 2026-05-04 08:00 | -37.29704 | 145.16317 | 19407 ft | 447 kts | 51° |
| 2026-05-04 08:02 | -37.16619 | 145.39283 | 24768 ft | 478 kts | 49° |
| 2026-05-04 08:02 | -37.14718 | 145.42608 | 25754 ft | 471 kts | 48° |
| 2026-05-04 08:02 | -37.12837 | 145.45904 | 26972 ft | 460 kts | 46° |
| 2026-05-04 08:03 | -37.10981 | 145.49149 | 28000 ft | 458 kts | 45° |
| 2026-05-04 08:03 | -37.09107 | 145.52404 | 28640 ft | 463 kts | 44° |
| 2026-05-04 08:03 | -37.07216 | 145.55677 | 29261 ft | 468 kts | 44° |
| 2026-05-04 08:03 | -37.05284 | 145.59013 | 29618 ft | 479 kts | 44° |
| 2026-05-04 08:04 | -37.03302 | 145.62430 | 29756 ft | 492 kts | 44° |
| 2026-05-04 08:04 | -37.01269 | 145.65940 | 29891 ft | 503 kts | 44° |
| 2026-05-04 08:04 | -36.99200 | 145.69521 | 30084 ft | 512 kts | 45° |
| 2026-05-04 08:04 | -36.97108 | 145.73151 | 30351 ft | 517 kts | 45° |
| 2026-05-04 08:05 | -36.95004 | 145.76808 | 30723 ft | 519 kts | 45° |
| 2026-05-04 08:05 | -36.92915 | 145.80441 | 31531 ft | 508 kts | 45° |
| 2026-05-04 08:05 | -36.90884 | 145.83982 | 32551 ft | 497 kts | 45° |
| 2026-05-04 08:05 | -36.88863 | 145.87484 | 33078 ft | 498 kts | 45° |
| 2026-05-04 08:06 | -36.86815 | 145.91005 | 33306 ft | 505 kts | 45° |
| 2026-05-04 08:06 | -36.84732 | 145.94569 | 33512 ft | 510 kts | 45° |
| 2026-05-04 08:06 | -36.82633 | 145.98160 | 33811 ft | 514 kts | 45° |
| 2026-05-04 08:06 | -36.80523 | 146.01777 | 34110 ft | 516 kts | 45° |
| 2026-05-04 08:08 | -36.66337 | 146.26046 | 36083 ft | 523 kts | 46° |
| 2026-05-04 08:08 | -36.63462 | 146.30942 | 36482 ft | 524 kts | 46° |
| 2026-05-04 08:10 | -36.46810 | 146.59153 | 38416 ft | 532 kts | 46° |
| 2026-05-04 08:11 | -36.44611 | 146.62860 | 38657 ft | 533 kts | 47° |
| 2026-05-04 08:11 | -36.40197 | 146.70292 | 38955 ft | 537 kts | 47° |
| 2026-05-04 08:11 | -36.37978 | 146.74022 | 39007 ft | 537 kts | 47° |
| 2026-05-04 08:12 | -36.33546 | 146.81465 | 39013 ft | 533 kts | 46° |
| 2026-05-04 08:12 | -36.29160 | 146.88816 | 39016 ft | 528 kts | 46° |
| 2026-05-04 08:13 | -36.24803 | 146.96096 | 39030 ft | 524 kts | 46° |
| 2026-05-04 08:13 | -36.20461 | 147.03336 | 39016 ft | 523 kts | 46° |
| 2026-05-04 08:14 | -36.16118 | 147.10560 | 39028 ft | 523 kts | 46° |
| 2026-05-04 08:16 | -35.98672 | 147.39449 | 39037 ft | 528 kts | 45° |
| 2026-05-04 08:16 | -35.94268 | 147.46707 | 39050 ft | 528 kts | 45° |
| 2026-05-04 08:17 | -35.89855 | 147.53963 | 39054 ft | 529 kts | 45° |
| 2026-05-04 08:17 | -35.85434 | 147.61221 | 39071 ft | 530 kts | 45° |
| 2026-05-04 08:19 | -35.67692 | 147.90160 | 39071 ft | 529 kts | 45° |
| 2026-05-04 08:20 | -35.63249 | 147.97373 | 39074 ft | 529 kts | 45° |
| 2026-05-04 08:20 | -35.58809 | 148.04567 | 39075 ft | 529 kts | 45° |
| 2026-05-04 08:21 | -35.54357 | 148.11763 | 39077 ft | 529 kts | 45° |
| 2026-05-04 08:21 | -35.49903 | 148.18949 | 39057 ft | 529 kts | 45° |
| 2026-05-04 08:22 | -35.45451 | 148.26120 | 39068 ft | 528 kts | 45° |
| 2026-05-04 08:24 | -35.27579 | 148.54692 | 39070 ft | 528 kts | 45° |
| 2026-05-04 08:24 | -35.23106 | 148.61809 | 39078 ft | 528 kts | 45° |
| 2026-05-04 08:25 | -35.18626 | 148.68919 | 39074 ft | 527 kts | 44° |
| 2026-05-04 08:25 | -35.14145 | 148.76019 | 39060 ft | 528 kts | 45° |
| 2026-05-04 08:27 | -34.96248 | 149.04233 | 39071 ft | 526 kts | 44° |
| 2026-05-04 08:28 | -34.91764 | 149.11267 | 39073 ft | 525 kts | 44° |
| 2026-05-04 08:28 | -34.87275 | 149.18294 | 39067 ft | 525 kts | 44° |
| 2026-05-04 08:29 | -34.82792 | 149.25299 | 39075 ft | 525 kts | 44° |
| 2026-05-04 08:31 | -34.62448 | 149.49343 | 33603 ft | 493 kts | 23° |
| 2026-05-04 08:33 | -34.42097 | 149.64178 | 29455 ft | 477 kts | 22° |
| 2026-05-04 08:33 | -34.39241 | 149.66203 | 29133 ft | 475 kts | 22° |
| 2026-05-04 08:35 | -34.30506 | 149.91522 | 25391 ft | 493 kts | 82° |
| 2026-05-04 08:35 | -34.30392 | 149.95637 | 24187 ft | 487 kts | 82° |
| 2026-05-04 08:35 | -34.30248 | 149.99709 | 22907 ft | 482 kts | 82° |
| 2026-05-04 08:35 | -34.30077 | 150.03723 | 21621 ft | 474 kts | 81° |
| 2026-05-04 08:37 | -34.28924 | 150.26908 | 17386 ft | 446 kts | 82° |
| 2026-05-04 08:37 | -34.28733 | 150.30622 | 16729 ft | 440 kts | 82° |
| 2026-05-04 08:37 | -34.28548 | 150.34293 | 16119 ft | 434 kts | 82° |
| 2026-05-04 08:38 | -34.28364 | 150.37915 | 15489 ft | 429 kts | 82° |
| 2026-05-04 08:38 | -34.28164 | 150.41473 | 14892 ft | 415 kts | 79° |
| 2026-05-04 08:38 | -34.27474 | 150.44784 | 14290 ft | 398 kts | 59° |
| 2026-05-04 08:40 | -34.18698 | 150.63981 | 10700 ft | 350 kts | 56° |
| 2026-05-04 08:40 | -34.17566 | 150.66514 | 10527 ft | 336 kts | 56° |
| 2026-05-04 08:40 | -34.16482 | 150.68941 | 10401 ft | 320 kts | 56° |
| 2026-05-04 08:41 | -34.15435 | 150.71257 | 10267 ft | 308 kts | 55° |
| 2026-05-04 08:41 | -34.14427 | 150.73483 | 10143 ft | 296 kts | 55° |
| 2026-05-04 08:41 | -34.13453 | 150.75636 | 10054 ft | 289 kts | 54° |
| 2026-05-04 08:41 | -34.12489 | 150.77767 | 10016 ft | 291 kts | 54° |
| 2026-05-04 08:42 | -34.11512 | 150.79927 | 10013 ft | 295 kts | 54° |
| 2026-05-04 08:42 | -34.10526 | 150.82107 | 9995 ft | 296 kts | 54° |
| 2026-05-04 08:42 | -34.09541 | 150.84287 | 9998 ft | 295 kts | 55° |
| 2026-05-04 08:42 | -34.08562 | 150.86467 | 10007 ft | 296 kts | 55° |
| 2026-05-04 08:43 | -34.07583 | 150.88649 | 9999 ft | 297 kts | 55° |
| 2026-05-04 08:43 | -34.06599 | 150.90838 | 9993 ft | 296 kts | 55° |
| 2026-05-04 08:43 | -34.05615 | 150.93017 | 10004 ft | 296 kts | 55° |
| 2026-05-04 08:43 | -34.04631 | 150.95199 | 9991 ft | 296 kts | 55° |
| 2026-05-04 08:44 | -34.03664 | 150.97387 | 9987 ft | 294 kts | 60° |
| 2026-05-04 08:44 | -34.03248 | 150.99818 | 9985 ft | 306 kts | 88° |
| 2026-05-04 08:46 | -34.15206 | 151.09604 | 10006 ft | 327 kts | 171° |
| 2026-05-04 08:46 | -34.17409 | 151.10169 | 9988 ft | 321 kts | 171° |
| 2026-05-04 08:46 | -34.19557 | 151.10725 | 9983 ft | 319 kts | 171° |
| 2026-05-04 08:46 | -34.21715 | 151.11232 | 9918 ft | 311 kts | 173° |
| 2026-05-04 08:47 | -34.23780 | 151.11664 | 9481 ft | 296 kts | 174° |
| 2026-05-04 08:47 | -34.25848 | 151.12061 | 9067 ft | 295 kts | 174° |
| 2026-05-04 08:47 | -34.27835 | 151.12434 | 8750 ft | 291 kts | 174° |
| 2026-05-04 08:47 | -34.29829 | 151.12799 | 8392 ft | 288 kts | 175° |
| 2026-05-04 08:48 | -34.31807 | 151.13173 | 8012 ft | 288 kts | 174° |
| 2026-05-04 08:48 | -34.33774 | 151.13554 | 7651 ft | 285 kts | 175° |
| 2026-05-04 08:48 | -34.35731 | 151.13910 | 7291 ft | 284 kts | 175° |
| 2026-05-04 08:48 | -34.37674 | 151.14262 | 7002 ft | 280 kts | 174° |
| 2026-05-04 08:49 | -34.39541 | 151.15060 | 6999 ft | 293 kts | 148° |
| 2026-05-04 08:50 | -34.37610 | 151.25190 | 5293 ft | 239 kts | 23° |
| 2026-05-04 08:50 | -34.36179 | 151.26163 | 5053 ft | 231 kts | 23° |
| 2026-05-04 08:51 | -34.34785 | 151.27089 | 5009 ft | 226 kts | 20° |
| 2026-05-04 08:51 | -34.33296 | 151.27479 | 4990 ft | 216 kts | 352° |
| 2026-05-04 08:51 | -34.31839 | 151.27200 | 4986 ft | 210 kts | 348° |
| 2026-05-04 08:51 | -34.30412 | 151.26895 | 4879 ft | 207 kts | 347° |
| 2026-05-04 08:52 | -34.29001 | 151.26561 | 4424 ft | 205 kts | 346° |
| 2026-05-04 08:52 | -34.27614 | 151.26212 | 3818 ft | 202 kts | 346° |
| 2026-05-04 08:52 | -34.26270 | 151.25865 | 3279 ft | 195 kts | 346° |
| 2026-05-04 08:52 | -34.24981 | 151.25528 | 3075 ft | 191 kts | 346° |
| 2026-05-04 08:53 | -34.23711 | 151.25194 | 3063 ft | 182 kts | 346° |
| 2026-05-04 08:54 | -34.15711 | 151.23099 | 2990 ft | 165 kts | 346° |
| 2026-05-04 08:55 | -34.14589 | 151.22806 | 2987 ft | 165 kts | 346° |
| 2026-05-04 08:55 | -34.13474 | 151.22514 | 2990 ft | 165 kts | 346° |
| 2026-05-04 08:55 | -34.12367 | 151.22225 | 2974 ft | 159 kts | 347° |
| 2026-05-04 08:55 | -34.11340 | 151.21956 | 2965 ft | 147 kts | 347° |
| 2026-05-04 08:57 | -34.04744 | 151.20232 | 1727 ft | 143 kts | 350° |
| 2026-05-04 09:01 | -33.94370 | 151.17401 | 35 ft | 0 kts | 319° |
| 2026-05-04 09:01 | -33.94356 | 151.17386 | 33 ft | 6 kts | 320° |
| 2026-05-04 09:01 | -33.94310 | 151.17339 | 35 ft | 12 kts | 320° |
| 2026-05-04 09:01 | -33.94217 | 151.17289 | 33 ft | 18 kts | 347° |
| 2026-05-04 09:02 | -33.94077 | 151.17255 | 33 ft | 22 kts | 349° |
| 2026-05-04 09:02 | -33.93987 | 151.17151 | 34 ft | 19 kts | 261° |
| 2026-05-04 09:02 | -33.94024 | 151.16996 | 34 ft | 19 kts | 253° |
| 2026-05-04 09:02 | -33.94062 | 151.16842 | 34 ft | 19 kts | 253° |
| 2026-05-04 09:03 | -33.94097 | 151.16688 | 34 ft | 14 kts | 257° |
| 2026-05-04 09:03 | -33.94056 | 151.16632 | 35 ft | 8 kts | 342° |
| 2026-05-04 09:03 | -33.94014 | 151.16617 | 35 ft | 0 kts | 344° |